sensor_id;sensor_type;location;lat;lon;timestamp;pressure;altitude;pressure_sealevel;temperature;humidity
6090;BME280;3073;42.660;23.316;2023-04-26T00:02:19;93583.69;;;22.18;51.29
6090;BME280;3073;42.660;23.316;2023-04-26T00:04:46;93580.66;;;22.44;51.02
6090;BME280;3073;42.660;23.316;2023-04-26T00:07:13;93574.78;;;22.19;51.50
6090;BME280;3073;42.660;23.316;2023-04-26T00:09:40;93571.34;;;21.39;53.57
6090;BME280;3073;42.660;23.316;2023-04-26T00:12:09;93570.06;;;21.33;54.13
6090;BME280;3073;42.660;23.316;2023-04-26T00:14:36;93565.72;;;21.37;53.76
6090;BME280;3073;42.660;23.316;2023-04-26T00:17:03;93563.13;;;21.61;53.32
6090;BME280;3073;42.660;23.316;2023-04-26T00:19:32;93556.00;;;21.34;53.48
6090;BME280;3073;42.660;23.316;2023-04-26T00:21:58;93556.00;;;21.22;53.81
6090;BME280;3073;42.660;23.316;2023-04-26T00:24:25;93554.44;;;21.08;54.49
6090;BME280;3073;42.660;23.316;2023-04-26T00:26:53;93561.72;;;21.51;53.57
6090;BME280;3073;42.660;23.316;2023-04-26T00:29:20;93558.66;;;21.74;53.03
6090;BME280;3073;42.660;23.316;2023-04-26T00:31:47;93543.84;;;21.74;53.29
6090;BME280;3073;42.660;23.316;2023-04-26T00:34:14;93542.78;;;21.63;53.47
6090;BME280;3073;42.660;23.316;2023-04-26T00:36:42;93545.69;;;20.77;55.08
6090;BME280;3073;42.660;23.316;2023-04-26T00:39:09;93535.00;;;21.39;53.57
6090;BME280;3073;42.660;23.316;2023-04-26T00:41:36;93547.53;;;21.61;53.14
6090;BME280;3073;42.660;23.316;2023-04-26T00:44:03;93542.78;;;21.63;52.78
6090;BME280;3073;42.660;23.316;2023-04-26T00:46:30;93530.00;;;20.73;54.15
6090;BME280;3073;42.660;23.316;2023-04-26T00:48:57;93541.44;;;20.48;55.07
6090;BME280;3073;42.660;23.316;2023-04-26T00:51:24;93542.25;;;21.58;53.04
6090;BME280;3073;42.660;23.316;2023-04-26T00:53:54;93543.19;;;20.35;55.40
6090;BME280;3073;42.660;23.316;2023-04-26T00:56:21;93539.00;;;20.88;53.65
6090;BME280;3073;42.660;23.316;2023-04-26T00:58:50;93542.13;;;20.93;53.68
6090;BME280;3073;42.660;23.316;2023-04-26T01:01:17;93537.94;;;21.37;52.25
6090;BME280;3073;42.660;23.316;2023-04-26T01:03:44;93544.28;;;21.52;52.25
6090;BME280;3073;42.660;23.316;2023-04-26T01:06:11;93547.16;;;21.35;51.53
6090;BME280;3073;42.660;23.316;2023-04-26T01:08:38;93548.72;;;19.72;54.60
6090;BME280;3073;42.660;23.316;2023-04-26T01:11:07;93551.69;;;20.24;53.04
6090;BME280;3073;42.660;23.316;2023-04-26T01:13:34;93558.97;;;19.89;53.47
6090;BME280;3073;42.660;23.316;2023-04-26T01:16:02;93553.31;;;19.75;53.72
6090;BME280;3073;42.660;23.316;2023-04-26T01:18:30;93552.31;;;19.59;52.98
6090;BME280;3073;42.660;23.316;2023-04-26T01:20:57;93540.19;;;20.13;52.17
6090;BME280;3073;42.660;23.316;2023-04-26T01:23:25;93534.38;;;20.36;51.42
6090;BME280;3073;42.660;23.316;2023-04-26T01:25:52;93531.47;;;20.38;50.89
6090;BME280;3073;42.660;23.316;2023-04-26T01:28:20;93525.56;;;20.62;50.67
6090;BME280;3073;42.660;23.316;2023-04-26T01:30:47;93525.06;;;20.80;50.82
6090;BME280;3073;42.660;23.316;2023-04-26T01:33:14;93537.78;;;20.61;50.84
6090;BME280;3073;42.660;23.316;2023-04-26T01:35:41;93539.97;;;19.35;53.96
6090;BME280;3073;42.660;23.316;2023-04-26T01:38:08;93553.25;;;19.25;54.00
6090;BME280;3073;42.660;23.316;2023-04-26T01:40:36;93545.06;;;18.13;55.45
6090;BME280;3073;42.660;23.316;2023-04-26T01:43:03;93543.13;;;18.01;56.26
6090;BME280;3073;42.660;23.316;2023-04-26T01:45:30;93550.81;;;17.41;58.78
6090;BME280;3073;42.660;23.316;2023-04-26T01:47:57;93554.22;;;17.11;59.95
6090;BME280;3073;42.660;23.316;2023-04-26T01:50:24;93553.72;;;18.17;57.32
6090;BME280;3073;42.660;23.316;2023-04-26T01:52:51;93545.38;;;18.20;56.27
6090;BME280;3073;42.660;23.316;2023-04-26T01:55:19;93548.91;;;19.17;54.45
6090;BME280;3073;42.660;23.316;2023-04-26T01:57:47;93536.25;;;19.94;52.45
6090;BME280;3073;42.660;23.316;2023-04-26T02:00:14;93539.78;;;20.23;52.10
6090;BME280;3073;42.660;23.316;2023-04-26T02:02:41;93535.91;;;20.17;51.59
6090;BME280;3073;42.660;23.316;2023-04-26T02:05:09;93535.13;;;20.37;51.58
6090;BME280;3073;42.660;23.316;2023-04-26T02:07:36;93521.41;;;20.36;51.29
6090;BME280;3073;42.660;23.316;2023-04-26T02:10:04;93518.44;;;20.26;52.13
6090;BME280;3073;42.660;23.316;2023-04-26T02:12:31;93523.66;;;20.71;51.27
6090;BME280;3073;42.660;23.316;2023-04-26T02:14:59;93532.66;;;20.52;51.59
6090;BME280;3073;42.660;23.316;2023-04-26T02:17:26;93523.41;;;20.64;51.14
6090;BME280;3073;42.660;23.316;2023-04-26T02:19:53;93519.75;;;20.77;51.25
6090;BME280;3073;42.660;23.316;2023-04-26T02:22:21;93519.41;;;20.78;51.17
6090;BME280;3073;42.660;23.316;2023-04-26T02:24:49;93525.22;;;20.51;51.68
6090;BME280;3073;42.660;23.316;2023-04-26T02:27:17;93525.13;;;20.47;51.26
6090;BME280;3073;42.660;23.316;2023-04-26T02:29:44;93531.06;;;20.48;51.72
6090;BME280;3073;42.660;23.316;2023-04-26T02:32:12;93524.06;;;20.73;51.49
6090;BME280;3073;42.660;23.316;2023-04-26T02:34:39;93525.41;;;20.34;52.53
6090;BME280;3073;42.660;23.316;2023-04-26T02:37:06;93526.09;;;20.22;52.57
6090;BME280;3073;42.660;23.316;2023-04-26T02:39:33;93528.28;;;20.77;51.34
6090;BME280;3073;42.660;23.316;2023-04-26T02:42:00;93529.78;;;20.54;52.05
6090;BME280;3073;42.660;23.316;2023-04-26T02:44:28;93525.91;;;20.72;51.52
6090;BME280;3073;42.660;23.316;2023-04-26T02:46:55;93523.00;;;20.29;51.85
6090;BME280;3073;42.660;23.316;2023-04-26T02:49:24;93514.03;;;20.71;51.27
6090;BME280;3073;42.660;23.316;2023-04-26T02:51:51;93514.69;;;20.92;51.37
6090;BME280;3073;42.660;23.316;2023-04-26T02:54:17;93505.00;;;21.14;50.76
6090;BME280;3073;42.660;23.316;2023-04-26T02:56:44;93505.97;;;21.21;51.28
6090;BME280;3073;42.660;23.316;2023-04-26T02:59:11;93503.03;;;21.23;50.91
6090;BME280;3073;42.660;23.316;2023-04-26T03:01:37;93501.72;;;21.41;50.20
6090;BME280;3073;42.660;23.316;2023-04-26T03:04:04;93510.59;;;21.40;50.23
6090;BME280;3073;42.660;23.316;2023-04-26T03:06:33;93523.88;;;20.78;51.18
6090;BME280;3073;42.660;23.316;2023-04-26T03:09:00;93518.03;;;21.05;50.42
6090;BME280;3073;42.660;23.316;2023-04-26T03:11:27;93513.19;;;20.91;51.22
6090;BME280;3073;42.660;23.316;2023-04-26T03:13:53;93513.81;;;20.88;52.03
6090;BME280;3073;42.660;23.316;2023-04-26T03:16:21;93503.25;;;21.30;51.13
6090;BME280;3073;42.660;23.316;2023-04-26T03:18:49;93507.88;;;21.36;51.15
6090;BME280;3073;42.660;23.316;2023-04-26T03:21:16;93512.53;;;21.19;51.36
6090;BME280;3073;42.660;23.316;2023-04-26T03:23:44;93500.72;;;21.45;51.04
6090;BME280;3073;42.660;23.316;2023-04-26T03:26:11;93498.88;;;21.46;51.15
6090;BME280;3073;42.660;23.316;2023-04-26T03:28:37;93506.16;;;21.40;51.34
6090;BME280;3073;42.660;23.316;2023-04-26T03:31:04;93510.28;;;21.69;50.99
6090;BME280;3073;42.660;23.316;2023-04-26T03:33:31;93507.78;;;21.21;51.64
6090;BME280;3073;42.660;23.316;2023-04-26T03:35:58;93513.00;;;21.21;51.35
6090;BME280;3073;42.660;23.316;2023-04-26T03:38:25;93508.72;;;20.92;52.41
6090;BME280;3073;42.660;23.316;2023-04-26T03:40:53;93513.38;;;20.98;51.80
6090;BME280;3073;42.660;23.316;2023-04-26T03:43:20;93511.88;;;20.73;52.33
6090;BME280;3073;42.660;23.316;2023-04-26T03:45:47;93520.00;;;21.20;51.75
6090;BME280;3073;42.660;23.316;2023-04-26T03:48:15;93519.16;;;20.47;53.17
6090;BME280;3073;42.660;23.316;2023-04-26T03:50:41;93525.69;;;20.89;52.67
6090;BME280;3073;42.660;23.316;2023-04-26T03:53:09;93520.78;;;21.21;51.85
6090;BME280;3073;42.660;23.316;2023-04-26T03:55:37;93526.31;;;21.59;51.18
6090;BME280;3073;42.660;23.316;2023-04-26T03:58:05;93518.03;;;21.05;52.04
6090;BME280;3073;42.660;23.316;2023-04-26T04:00:32;93520.47;;;21.74;50.92
6090;BME280;3073;42.660;23.316;2023-04-26T04:02:59;93524.97;;;21.89;50.59
6090;BME280;3073;42.660;23.316;2023-04-26T04:05:26;93528.25;;;21.74;51.05
6090;BME280;3073;42.660;23.316;2023-04-26T04:07:52;93525.88;;;22.09;50.71
6090;BME280;3073;42.660;23.316;2023-04-26T04:10:21;93537.41;;;21.08;52.23
6090;BME280;3073;42.660;23.316;2023-04-26T04:12:56;93545.50;;;20.37;53.90
6090;BME280;3073;42.660;23.316;2023-04-26T04:15:49;93536.56;;;20.26;55.22
6090;BME280;3073;42.660;23.316;2023-04-26T04:18:19;93540.06;;;20.75;53.46
6090;BME280;3073;42.660;23.316;2023-04-26T04:20:46;93536.94;;;21.42;52.06
6090;BME280;3073;42.660;23.316;2023-04-26T04:23:13;93539.41;;;21.63;52.01
6090;BME280;3073;42.660;23.316;2023-04-26T04:25:40;93541.31;;;21.90;51.90
6090;BME280;3073;42.660;23.316;2023-04-26T04:28:08;93544.97;;;21.89;51.57
6090;BME280;3073;42.660;23.316;2023-04-26T04:30:35;93549.34;;;22.25;50.94
6090;BME280;3073;42.660;23.316;2023-04-26T04:33:03;93552.31;;;22.11;50.99
6090;BME280;3073;42.660;23.316;2023-04-26T04:35:30;93554.53;;;21.73;51.52
6090;BME280;3073;42.660;23.316;2023-04-26T04:37:59;93554.34;;;22.18;50.69
6090;BME280;3073;42.660;23.316;2023-04-26T04:40:26;93561.34;;;20.92;52.72
6090;BME280;3073;42.660;23.316;2023-04-26T04:42:53;93567.25;;;20.69;52.75
6090;BME280;3073;42.660;23.316;2023-04-26T04:45:20;93549.88;;;20.69;53.42
6090;BME280;3073;42.660;23.316;2023-04-26T04:47:47;93550.38;;;21.44;51.84
6090;BME280;3073;42.660;23.316;2023-04-26T04:50:15;93565.16;;;20.38;53.77
6090;BME280;3073;42.660;23.316;2023-04-26T04:52:42;93559.38;;;20.65;54.12
6090;BME280;3073;42.660;23.316;2023-04-26T04:55:09;93557.63;;;21.50;52.06
6090;BME280;3073;42.660;23.316;2023-04-26T04:57:36;93561.53;;;21.20;52.27
6090;BME280;3073;42.660;23.316;2023-04-26T05:00:03;93569.06;;;20.56;54.43
6090;BME280;3073;42.660;23.316;2023-04-26T05:02:35;93561.56;;;21.84;52.01
6090;BME280;3073;42.660;23.316;2023-04-26T05:05:02;93550.53;;;21.75;51.69
6090;BME280;3073;42.660;23.316;2023-04-26T05:07:31;93555.16;;;22.22;49.88
6090;BME280;3073;42.660;23.316;2023-04-26T05:09:58;93556.03;;;21.98;49.60
6090;BME280;3073;42.660;23.316;2023-04-26T05:12:25;93551.78;;;22.77;49.08
6090;BME280;3073;42.660;23.316;2023-04-26T05:14:52;93557.59;;;23.01;48.68
6090;BME280;3073;42.660;23.316;2023-04-26T05:17:19;93562.38;;;21.88;49.19
6090;BME280;3073;42.660;23.316;2023-04-26T05:19:46;93557.72;;;22.06;49.23
6090;BME280;3073;42.660;23.316;2023-04-26T05:22:13;93559.06;;;21.88;49.92
6090;BME280;3073;42.660;23.316;2023-04-26T05:24:47;93557.44;;;22.51;48.63
6090;BME280;3073;42.660;23.316;2023-04-26T05:27:14;93562.09;;;23.36;47.52
6090;BME280;3073;42.660;23.316;2023-04-26T05:29:41;93563.22;;;22.60;48.20
6090;BME280;3073;42.660;23.316;2023-04-26T05:32:08;93575.84;;;23.52;46.06
6090;BME280;3073;42.660;23.316;2023-04-26T05:34:35;93570.88;;;23.63;45.81
6090;BME280;3073;42.660;23.316;2023-04-26T05:37:03;93573.69;;;23.54;45.91
6090;BME280;3073;42.660;23.316;2023-04-26T05:39:30;93572.59;;;23.39;46.41
6090;BME280;3073;42.660;23.316;2023-04-26T05:41:58;93572.88;;;23.69;45.48
6090;BME280;3073;42.660;23.316;2023-04-26T05:44:25;93575.19;;;23.90;44.77
6090;BME280;3073;42.660;23.316;2023-04-26T05:46:52;93581.75;;;24.38;44.35
6090;BME280;3073;42.660;23.316;2023-04-26T05:49:19;93580.16;;;24.33;44.41
6090;BME280;3073;42.660;23.316;2023-04-26T05:51:47;93585.53;;;24.21;43.86
6090;BME280;3073;42.660;23.316;2023-04-26T05:54:13;93576.34;;;24.69;43.25
6090;BME280;3073;42.660;23.316;2023-04-26T05:56:41;93579.13;;;24.99;42.78
6090;BME280;3073;42.660;23.316;2023-04-26T05:59:09;93585.50;;;25.24;42.27
6090;BME280;3073;42.660;23.316;2023-04-26T06:01:36;93585.69;;;25.35;42.10
6090;BME280;3073;42.660;23.316;2023-04-26T06:04:03;93588.31;;;25.87;41.54
6090;BME280;3073;42.660;23.316;2023-04-26T06:06:30;93588.00;;;25.17;41.70
6090;BME280;3073;42.660;23.316;2023-04-26T06:08:57;93586.47;;;24.51;42.77
6090;BME280;3073;42.660;23.316;2023-04-26T06:11:24;93586.41;;;25.84;41.21
6090;BME280;3073;42.660;23.316;2023-04-26T06:13:51;93579.03;;;26.20;41.09
6090;BME280;3073;42.660;23.316;2023-04-26T06:16:21;93583.56;;;26.26;40.62
6090;BME280;3073;42.660;23.316;2023-04-26T06:18:48;93581.09;;;26.74;40.91
6090;BME280;3073;42.660;23.316;2023-04-26T06:21:15;93583.69;;;27.51;39.54
6090;BME280;3073;42.660;23.316;2023-04-26T06:23:41;93589.88;;;25.43;41.07
6090;BME280;3073;42.660;23.316;2023-04-26T06:26:08;93582.28;;;24.47;42.78
6090;BME280;3073;42.660;23.316;2023-04-26T06:28:35;93588.34;;;25.38;41.98
6090;BME280;3073;42.660;23.316;2023-04-26T06:31:02;93587.94;;;24.30;42.13
6090;BME280;3073;42.660;23.316;2023-04-26T06:33:30;93592.63;;;21.69;45.33
6090;BME280;3073;42.660;23.316;2023-04-26T06:35:57;93584.69;;;19.94;47.92
6090;BME280;3073;42.660;23.316;2023-04-26T06:38:24;93585.00;;;20.34;48.14
6090;BME280;3073;42.660;23.316;2023-04-26T06:40:51;93589.03;;;19.81;47.50
6090;BME280;3073;42.660;23.316;2023-04-26T06:43:18;93589.09;;;19.93;48.51
6090;BME280;3073;42.660;23.316;2023-04-26T06:45:44;93591.44;;;21.78;45.73
6090;BME280;3073;42.660;23.316;2023-04-26T06:48:11;93581.44;;;22.04;44.97
6090;BME280;3073;42.660;23.316;2023-04-26T06:50:39;93594.06;;;21.18;46.23
6090;BME280;3073;42.660;23.316;2023-04-26T06:53:06;93589.97;;;23.67;43.57
6090;BME280;3073;42.660;23.316;2023-04-26T06:55:33;93586.44;;;23.12;43.68
6090;BME280;3073;42.660;23.316;2023-04-26T06:58:00;93602.13;;;24.51;41.29
6090;BME280;3073;42.660;23.316;2023-04-26T07:00:27;93602.03;;;24.67;40.31
6090;BME280;3073;42.660;23.316;2023-04-26T07:02:55;93596.59;;;24.76;40.30
6090;BME280;3073;42.660;23.316;2023-04-26T07:05:22;93603.94;;;23.12;42.40
6090;BME280;3073;42.660;23.316;2023-04-26T07:07:50;93598.88;;;22.32;43.68
6090;BME280;3073;42.660;23.316;2023-04-26T07:10:17;93597.19;;;22.24;44.08
6090;BME280;3073;42.660;23.316;2023-04-26T07:12:45;93597.47;;;21.82;44.81
6090;BME280;3073;42.660;23.316;2023-04-26T07:15:12;93595.81;;;19.65;47.44
6090;BME280;3073;42.660;23.316;2023-04-26T07:17:39;93600.97;;;21.26;45.10
6090;BME280;3073;42.660;23.316;2023-04-26T07:20:07;93595.66;;;20.32;46.92
6090;BME280;3073;42.660;23.316;2023-04-26T07:22:34;93602.78;;;21.86;44.06
6090;BME280;3073;42.660;23.316;2023-04-26T07:25:03;93598.22;;;21.83;42.81
6090;BME280;3073;42.660;23.316;2023-04-26T07:27:31;93603.75;;;22.61;41.38
6090;BME280;3073;42.660;23.316;2023-04-26T07:29:58;93599.13;;;23.61;40.99
6090;BME280;3073;42.660;23.316;2023-04-26T07:32:25;93606.16;;;24.10;39.25
6090;BME280;3073;42.660;23.316;2023-04-26T07:34:52;93603.75;;;22.33;40.20
6090;BME280;3073;42.660;23.316;2023-04-26T07:37:19;93610.69;;;21.77;40.98
6090;BME280;3073;42.660;23.316;2023-04-26T07:39:45;93606.78;;;22.08;41.07
6090;BME280;3073;42.660;23.316;2023-04-26T07:42:14;93614.38;;;22.56;39.96
6090;BME280;3073;42.660;23.316;2023-04-26T07:44:40;93603.59;;;21.38;40.15
6090;BME280;3073;42.660;23.316;2023-04-26T07:47:10;93613.69;;;20.94;41.95
6090;BME280;3073;42.660;23.316;2023-04-26T07:49:37;93621.59;;;20.98;42.74
6090;BME280;3073;42.660;23.316;2023-04-26T07:52:19;93622.81;;;23.40;38.99
6090;BME280;3073;42.660;23.316;2023-04-26T07:54:46;93612.91;;;23.14;38.76
6090;BME280;3073;42.660;23.316;2023-04-26T07:57:14;93619.13;;;21.74;40.11
6090;BME280;3073;42.660;23.316;2023-04-26T07:59:41;93621.34;;;22.12;40.70
6090;BME280;3073;42.660;23.316;2023-04-26T08:02:08;93621.69;;;20.57;42.76
6090;BME280;3073;42.660;23.316;2023-04-26T08:04:35;93627.47;;;21.92;41.14
6090;BME280;3073;42.660;23.316;2023-04-26T08:07:01;93628.28;;;24.01;38.85
6090;BME280;3073;42.660;23.316;2023-04-26T08:09:29;93630.44;;;23.33;39.34
6090;BME280;3073;42.660;23.316;2023-04-26T08:11:56;93616.75;;;23.36;39.45
6090;BME280;3073;42.660;23.316;2023-04-26T08:14:24;93618.84;;;22.28;40.81
6090;BME280;3073;42.660;23.316;2023-04-26T08:16:51;93616.75;;;22.61;40.45
6090;BME280;3073;42.660;23.316;2023-04-26T08:19:18;93627.94;;;23.21;39.52
6090;BME280;3073;42.660;23.316;2023-04-26T08:21:45;93633.88;;;24.95;37.48
6090;BME280;3073;42.660;23.316;2023-04-26T08:24:12;93636.34;;;23.61;38.97
6090;BME280;3073;42.660;23.316;2023-04-26T08:26:39;93628.78;;;22.26;40.72
6090;BME280;3073;42.660;23.316;2023-04-26T08:29:06;93628.66;;;24.76;37.37
6090;BME280;3073;42.660;23.316;2023-04-26T08:31:34;93621.75;;;24.45;37.97
6090;BME280;3073;42.660;23.316;2023-04-26T08:34:01;93634.06;;;23.59;38.07
6090;BME280;3073;42.660;23.316;2023-04-26T08:36:28;93627.09;;;23.01;39.05
6090;BME280;3073;42.660;23.316;2023-04-26T08:38:56;93624.25;;;23.22;38.84
6090;BME280;3073;42.660;23.316;2023-04-26T08:41:24;93635.38;;;21.71;40.79
6090;BME280;3073;42.660;23.316;2023-04-26T08:43:53;93634.28;;;21.72;40.88
6090;BME280;3073;42.660;23.316;2023-04-26T08:46:23;93629.78;;;23.36;39.06
6090;BME280;3073;42.660;23.316;2023-04-26T08:49:05;93626.59;;;22.40;39.70
6090;BME280;3073;42.660;23.316;2023-04-26T08:51:39;93633.75;;;23.96;38.15
6090;BME280;3073;42.660;23.316;2023-04-26T08:54:06;93632.56;;;21.64;41.03
6090;BME280;3073;42.660;23.316;2023-04-26T08:56:34;93630.59;;;21.73;41.11
6090;BME280;3073;42.660;23.316;2023-04-26T08:59:01;93635.59;;;21.66;40.88
6090;BME280;3073;42.660;23.316;2023-04-26T09:01:28;93626.50;;;22.64;39.68
6090;BME280;3073;42.660;23.316;2023-04-26T09:04:01;93637.53;;;21.45;41.37
6090;BME280;3073;42.660;23.316;2023-04-26T09:06:29;93625.84;;;21.87;40.42
6090;BME280;3073;42.660;23.316;2023-04-26T09:09:02;93631.09;;;22.15;40.50
6090;BME280;3073;42.660;23.316;2023-04-26T09:11:53;93640.19;;;22.49;39.64
6090;BME280;3073;42.660;23.316;2023-04-26T09:14:20;93648.34;;;23.19;38.82
6090;BME280;3073;42.660;23.316;2023-04-26T09:16:47;93637.56;;;23.48;38.20
6090;BME280;3073;42.660;23.316;2023-04-26T09:19:33;93653.94;;;24.15;37.51
6090;BME280;3073;42.660;23.316;2023-04-26T09:22:01;93646.94;;;22.78;38.72
6090;BME280;3073;42.660;23.316;2023-04-26T09:24:28;93643.66;;;23.71;38.83
6090;BME280;3073;42.660;23.316;2023-04-26T09:27:11;93640.69;;;23.88;38.50
6090;BME280;3073;42.660;23.316;2023-04-26T09:29:38;93641.59;;;24.50;37.09
6090;BME280;3073;42.660;23.316;2023-04-26T09:32:05;93639.00;;;23.80;37.40
6090;BME280;3073;42.660;23.316;2023-04-26T09:34:44;93642.09;;;24.01;36.85
6090;BME280;3073;42.660;23.316;2023-04-26T09:37:12;93643.22;;;23.69;38.02
6090;BME280;3073;42.660;23.316;2023-04-26T09:39:40;93645.56;;;24.44;36.82
6090;BME280;3073;42.660;23.316;2023-04-26T09:42:07;93641.31;;;23.35;37.77
6090;BME280;3073;42.660;23.316;2023-04-26T09:44:36;93632.81;;;23.69;37.67
6090;BME280;3073;42.660;23.316;2023-04-26T09:47:04;93637.91;;;23.03;38.91
6090;BME280;3073;42.660;23.316;2023-04-26T09:49:32;93630.78;;;23.16;37.93
6090;BME280;3073;42.660;23.316;2023-04-26T09:52:09;93633.44;;;25.13;35.76
6090;BME280;3073;42.660;23.316;2023-04-26T09:54:40;93635.47;;;24.23;35.62
6090;BME280;3073;42.660;23.316;2023-04-26T09:57:07;93630.03;;;25.31;35.79
6090;BME280;3073;42.660;23.316;2023-04-26T09:59:43;93620.19;;;24.41;35.58
6090;BME280;3073;42.660;23.316;2023-04-26T10:02:17;93638.94;;;26.28;34.70
6090;BME280;3073;42.660;23.316;2023-04-26T10:04:46;93628.69;;;24.57;34.93
6090;BME280;3073;42.660;23.316;2023-04-26T10:07:15;93630.69;;;25.05;35.10
6090;BME280;3073;42.660;23.316;2023-04-26T10:09:43;93629.47;;;25.94;34.35
6090;BME280;3073;42.660;23.316;2023-04-26T10:12:12;93627.28;;;25.47;33.88
6090;BME280;3073;42.660;23.316;2023-04-26T10:14:39;93623.25;;;26.95;32.71
6090;BME280;3073;42.660;23.316;2023-04-26T10:17:07;93621.31;;;25.99;33.45
6090;BME280;3073;42.660;23.316;2023-04-26T10:19:35;93612.00;;;26.94;31.83
6090;BME280;3073;42.660;23.316;2023-04-26T10:22:05;93613.88;;;25.03;33.75
6090;BME280;3073;42.660;23.316;2023-04-26T10:24:35;93609.22;;;25.16;34.15
6090;BME280;3073;42.660;23.316;2023-04-26T10:27:02;93613.38;;;24.36;34.79
6090;BME280;3073;42.660;23.316;2023-04-26T10:30:04;93610.88;;;26.58;32.63
6090;BME280;3073;42.660;23.316;2023-04-26T10:36:02;93609.34;;;26.24;32.09
6090;BME280;3073;42.660;23.316;2023-04-26T10:38:29;93612.63;;;25.91;32.78
6090;BME280;3073;42.660;23.316;2023-04-26T10:41:28;93607.53;;;24.04;33.61
6090;BME280;3073;42.660;23.316;2023-04-26T10:43:59;93622.00;;;26.22;32.38
6090;BME280;3073;42.660;23.316;2023-04-26T10:46:34;93605.69;;;24.63;33.44
6090;BME280;3073;42.660;23.316;2023-04-26T10:49:15;93621.97;;;24.18;33.43
6090;BME280;3073;42.660;23.316;2023-04-26T10:52:13;93617.06;;;24.93;33.31
6090;BME280;3073;42.660;23.316;2023-04-26T10:54:55;93601.81;;;22.58;35.34
6090;BME280;3073;42.660;23.316;2023-04-26T10:57:48;93606.69;;;25.94;33.03
6090;BME280;3073;42.660;23.316;2023-04-26T11:00:29;93603.66;;;24.75;32.82
6090;BME280;3073;42.660;23.316;2023-04-26T11:03:09;93615.16;;;24.32;33.64
6090;BME280;3073;42.660;23.316;2023-04-26T11:05:55;93600.25;;;23.94;33.36
6090;BME280;3073;42.660;23.316;2023-04-26T11:08:26;93613.66;;;25.12;32.60
6090;BME280;3073;42.660;23.316;2023-04-26T11:11:12;93612.66;;;23.35;33.96
6090;BME280;3073;42.660;23.316;2023-04-26T11:13:45;93610.47;;;23.37;34.16
6090;BME280;3073;42.660;23.316;2023-04-26T11:16:13;93602.47;;;24.50;33.06
6090;BME280;3073;42.660;23.316;2023-04-26T11:18:42;93603.91;;;25.80;32.23
6090;BME280;3073;42.660;23.316;2023-04-26T11:21:09;93614.81;;;24.91;33.20
6090;BME280;3073;42.660;23.316;2023-04-26T11:23:37;93606.53;;;25.08;32.53
6090;BME280;3073;42.660;23.316;2023-04-26T11:26:05;93611.03;;;25.34;32.10
6090;BME280;3073;42.660;23.316;2023-04-26T11:28:33;93610.69;;;24.14;33.24
6090;BME280;3073;42.660;23.316;2023-04-26T11:31:02;93612.94;;;25.60;32.24
6090;BME280;3073;42.660;23.316;2023-04-26T11:33:29;93612.25;;;23.17;34.63
6090;BME280;3073;42.660;23.316;2023-04-26T11:35:57;93610.81;;;25.95;31.64
6090;BME280;3073;42.660;23.316;2023-04-26T11:38:25;93615.41;;;24.66;32.47
6090;BME280;3073;42.660;23.316;2023-04-26T11:40:54;93610.13;;;23.23;34.01
6090;BME280;3073;42.660;23.316;2023-04-26T11:43:21;93613.06;;;24.03;32.29
6090;BME280;3073;42.660;23.316;2023-04-26T11:45:48;93618.38;;;24.26;31.85
6090;BME280;3073;42.660;23.316;2023-04-26T11:48:16;93607.69;;;23.30;32.75
6090;BME280;3073;42.660;23.316;2023-04-26T11:50:44;93616.31;;;24.92;32.79
6090;BME280;3073;42.660;23.316;2023-04-26T11:53:11;93612.06;;;25.30;32.18
6090;BME280;3073;42.660;23.316;2023-04-26T11:55:38;93621.03;;;26.04;31.54
6090;BME280;3073;42.660;23.316;2023-04-26T11:58:11;93616.44;;;25.45;30.96
6090;BME280;3073;42.660;23.316;2023-04-26T12:00:55;93607.94;;;24.83;31.55
6090;BME280;3073;42.660;23.316;2023-04-26T12:03:28;93604.00;;;23.97;32.65
6090;BME280;3073;42.660;23.316;2023-04-26T12:05:55;93603.66;;;24.75;31.84
6090;BME280;3073;42.660;23.316;2023-04-26T12:08:25;93594.03;;;24.79;31.95
6090;BME280;3073;42.660;23.316;2023-04-26T12:10:53;93590.69;;;24.98;32.35
6090;BME280;3073;42.660;23.316;2023-04-26T12:13:20;93604.81;;;24.97;32.34
6090;BME280;3073;42.660;23.316;2023-04-26T12:15:47;93595.44;;;23.62;33.45
6090;BME280;3073;42.660;23.316;2023-04-26T12:18:16;93595.59;;;23.06;34.17
6090;BME280;3073;42.660;23.316;2023-04-26T12:20:44;93602.53;;;24.53;32.43
6090;BME280;3073;42.660;23.316;2023-04-26T12:23:13;93600.06;;;23.37;33.63
6090;BME280;3073;42.660;23.316;2023-04-26T12:25:51;93587.63;;;24.16;32.46
6090;BME280;3073;42.660;23.316;2023-04-26T12:28:18;93596.59;;;24.95;31.98
6090;BME280;3073;42.660;23.316;2023-04-26T12:30:44;93591.47;;;24.60;32.73
6090;BME280;3073;42.660;23.316;2023-04-26T12:33:12;93594.38;;;23.47;32.82
6090;BME280;3073;42.660;23.316;2023-04-26T12:35:39;93599.03;;;24.84;31.95
6090;BME280;3073;42.660;23.316;2023-04-26T12:38:09;93593.63;;;24.96;31.75
6090;BME280;3073;42.660;23.316;2023-04-26T12:40:37;93599.94;;;25.41;30.92
6090;BME280;3073;42.660;23.316;2023-04-26T12:43:04;93595.59;;;25.03;31.59
6090;BME280;3073;42.660;23.316;2023-04-26T12:45:30;93585.31;;;24.49;31.74
6090;BME280;3073;42.660;23.316;2023-04-26T12:47:57;93597.03;;;25.23;31.75
6090;BME280;3073;42.660;23.316;2023-04-26T12:50:24;93591.31;;;22.82;34.51
6090;BME280;3073;42.660;23.316;2023-04-26T12:52:52;93582.47;;;24.00;33.75
6090;BME280;3073;42.660;23.316;2023-04-26T12:55:20;93588.34;;;24.13;33.60
6090;BME280;3073;42.660;23.316;2023-04-26T12:57:47;93587.09;;;23.72;33.66
6090;BME280;3073;42.660;23.316;2023-04-26T13:00:15;93584.75;;;24.40;32.90
6090;BME280;3073;42.660;23.316;2023-04-26T13:02:43;93594.94;;;25.32;32.60
6090;BME280;3073;42.660;23.316;2023-04-26T13:05:11;93607.31;;;25.13;31.05
6090;BME280;3073;42.660;23.316;2023-04-26T13:07:42;93606.31;;;25.66;31.33
6090;BME280;3073;42.660;23.316;2023-04-26T13:10:09;93593.13;;;24.30;33.22
6090;BME280;3073;42.660;23.316;2023-04-26T13:12:38;93595.50;;;23.65;33.85
6090;BME280;3073;42.660;23.316;2023-04-26T13:15:05;93604.00;;;25.16;33.66
6090;BME280;3073;42.660;23.316;2023-04-26T13:17:34;93605.50;;;22.85;34.76
6090;BME280;3073;42.660;23.316;2023-04-26T13:20:01;93609.91;;;22.41;35.21
6090;BME280;3073;42.660;23.316;2023-04-26T13:22:29;93614.25;;;23.39;34.29